EHVL  Vlieland Heliport

Add Bookmark

Vlieland, The Netherlands

Status
Operational
Latitude Longitude
53° 17' 47" N 5° 5' 8" E
53.296665 5.085833
Local (DST + 2) UTC (GMT + 1)
Oct 24, 2014 06:52 Oct 24, 2014 16:52
Sunrise-Sunset Local UTC
Begin Civil Twilight 07:46 05:46
Sunrise 08:22 06:22
Sunset 06:25 16:25
End Civil Twilight 07:01 17:01

Current Weather

METAR Observed LIFR
EHVL 241625Z AUTO 19016KT 2300 BR BKN002 OVC003 13/13 Q1014 AMB Fri, Oct 24, 2014 @ 16:25 UTC
(27 Minutes ago)
Low Instrument Flight Rules
Wind Visibility Clouds Conditions
190° at 16 knots (30 kph) 2000 meters
  • Broken at 200' AGL
  • Overcast at 300' AGL
  • Mist
Temperatures Readings Precipitation
Current Temp 13°C (55°F)
Dewpoint 13°C (55°F)
Humidity 100%
Altimeter 29.94"Hg
Sea Level Pressure 1014mb
Field Elevation 16.4'
None Recorded

Additional weather within a 92.6km radius of EHVL

Map ICAO Location
EHMG 36.5km N (347°)
EHLW 45.6km E (099°)
EHKD 46.1km S (206°)
EHMA 61.5km E (068°)
EHQE 75.4km W (236°)

24 Hour Weather History

Loading
-

24 Hour Weather Graphs

Loading
-

CheckWX.com is intended as a tool to help pilots better visualize weather data. It is not intended as a substitute for an official weather briefing obtained from a Flight Service Station. CheckWX.com does not meet the FAA requirements for an official pre-flight weather briefing. Therefore, it's important that pilots still call and obtain an official FSS pre-flight weather briefing.